Aktuální počasí v Česku a ve světě - METAR

Seznam meteostanic umístěných nejčasteji na letišti v ČR a ve světě

Vyhledat místa podle abecedy:
A B C D E F G H I J K L M N O P Q R S T U V W X Y Z

Filtrovat:

ID stanice:
a/nebo
Název místa (fulltext):
 
Místo (ID)Naposledy načteno 
Kadaň - Tušimice (Tusimice) 29.11.2020 23:00 UTC Zobrazit data
Místo: Kadaň - Tušimice
Teplota: 0 °C (pocitová: -7.3 °C)
Vítr: 3 m/s z(e) 270°
Počasí:
Dohlednost: 35 km
Zákl. oblačnosti: N/A
Vlhkost: 80%
Karlovy Vary (K.Vary) 29.11.2020 23:00 UTC Zobrazit data
Místo: Karlovy Vary
Teplota: -2 °C (pocitová: -8.5 °C)
Vítr: 2 m/s z(e) 290°
Počasí: skorojasno
Dohlednost: 40 km
Zákl. oblačnosti: 1/8 690 m
Vlhkost: 86%
Kocelovice (Kocelovice) 29.11.2020 23:00 UTC Zobrazit data
Místo: Kocelovice
Teplota: 0 °C (pocitová: -4.3 °C)
Vítr: 1 m/s z(e) 320°
Počasí: zataženo
Dohlednost: 7 km
Zákl. oblačnosti: N/A
Vlhkost: 100%
Kopisty (Kopisty) 29.11.2020 21:00 UTC Zobrazit data
Místo: Kopisty
Teplota: 1 °C (pocitová: -3.1 °C)
Vítr: 1 m/s z(e) 30°
Počasí: skorojasno
Dohlednost: 35 km
Zákl. oblačnosti: 2/8 1290 m
Vlhkost: 93%
Kostelní Myslová (K.Myslova) 29.11.2020 23:00 UTC Zobrazit data
Místo: Kostelní Myslová
Teplota: 0 °C (pocitová: -5.9 °C)
Vítr: 2 m/s z(e) 0°
Počasí: zataženo
Dohlednost: 24 km
Zákl. oblačnosti: 4/8 300 m;8/8 1500 m
Vlhkost: 100%
Křešín - Kramolín (Kramolin) 29.11.2020 23:00 UTC Zobrazit data
Místo: Křešín - Kramolín
Teplota: 0 °C (pocitová: -8.4 °C)
Vítr: 4 m/s z(e) 290°
Počasí: zataženo
Dohlednost: 30 km
Zákl. oblačnosti: 8/8 300 m
Vlhkost: 93%
Kuchařovice - Znojmo (Kucharovic) 29.11.2020 23:00 UTC Zobrazit data
Místo: Kuchařovice - Znojmo
Teplota: 2 °C (pocitová: -5.6 °C)
Vítr: 4 m/s z(e) 330°
Počasí: zataženo
Dohlednost: 30 km
Zákl. oblačnosti: 1/8 1050 m;8/8 2100 m
Vlhkost: 87%
Kabul (OAKB) 29.11.2020 22:50 UTC Zobrazit METAR
OAKB 292250Z 29003KT 7000 NSC 02/M01 Q1025 RMK A3028 WHT WHT
Kajaani (EFKI) 29.11.2020 22:50 UTC Zobrazit METAR
EFKI 292250Z AUTO 16006KT 9999 SCT009 OVC025 M03/M04 Q1026
Kardla (EEKA) 29.11.2020 15:50 UTC Zobrazit METAR
EEKA 291550Z 09005KT 9999 FEW011 01/M00 Q1026
Karlsruhe/ Baden-Baden (EDSB) 29.11.2020 21:50 UTC Zobrazit METAR
EDSB 292150Z 05005KT CAVOK M02/M04 Q1025
Karup (EKKA) 29.11.2020 22:50 UTC Zobrazit METAR
EKKA 292250Z AUTO 22003KT 9999 OVC020/// 00/M01 Q1026
Kathmandu (VNKT) 29.11.2020 22:50 UTC Zobrazit METAR
VNKT 292250Z 00000KT 6000 FEW015 07/06 Q1021 NOSIG
Katowice (EPKT) 29.11.2020 23:00 UTC Zobrazit METAR
EPKT 292300Z 31002KT 4100 BR OVC047 M01/M02 Q1023
Kaunas (EYKA) 29.11.2020 22:50 UTC Zobrazit METAR
EYKA 292250Z AUTO 32003KT 250V030 4700 -SN OVC005/// M00/M02 Q1019
Kavala (LGKV) 29.11.2020 18:50 UTC Zobrazit METAR
LGKV 291850Z 03009KT 9999 FEW025 BKN080 11/08 Q1015
Kazan (UWKD) Zatím nenačteno  
Kefallinia (LGKF) 29.11.2020 17:50 UTC Zobrazit METAR
LGKF 291750Z 15011KT 9999 SCT012 SCT018 OVC070 16/16 Q1011
Kemi (EFKE) 29.11.2020 22:50 UTC Zobrazit METAR
EFKE 292250Z AUTO 17012KT 140V210 9999 -SNRA BKN007 OVC018 01/M00 Q1022
Kerkira (LGKR) 29.11.2020 20:50 UTC Zobrazit METAR
LGKR 292050Z 11008KT 9999 SCT015 BKN025 OVC080 13/12 Q1011 NOSIG
Kerry (EIKY) 29.11.2020 19:00 UTC Zobrazit METAR
EIKY 291900Z VRB02KT 2100 FG FEW001 BKN021 05/05 Q1028
Khartoum (HSSS) 29.11.2020 23:00 UTC Zobrazit METAR
HSSS 292300Z 33007KT CAVOK 22/M05 Q1014 NOSIG
Kigali (HRYR) 29.11.2020 23:00 UTC Zobrazit METAR
HRYR 292300Z 18003KT 9999 SCT026 SCT100 18/18 Q1020 NOSIG
Kingston (MKJP) 29.11.2020 23:00 UTC Zobrazit METAR
MKJP 292300Z 13016KT 9999 FEW022 28/19 Q1013
Kingstown (TVSV) 13.12.2019 20:43 UTC Zobrazit METAR
TVSV 132043Z 12005G18KT 4000 SHRA BKN014 27/23 Q1010
Kinshasa (FZAA) 29.11.2020 10:00 UTC Zobrazit METAR
FZAA 291000Z 36004KT 6000 SCT018 BKN080 30/23 Q1014 NOSIG
Kittila (EFKT) 29.11.2020 22:50 UTC Zobrazit METAR
EFKT 292250Z AUTO 19008KT 5000 -SN OVC007 M01/M02 Q1017
Klagenfurt (LOWK) 29.11.2020 21:50 UTC Zobrazit METAR
LOWK 292150Z AUTO VRB01KT 4100 BR FEW001 BKN003 M01/M02 Q1024
Kortrijk-Wevelgem (EBKT) Zatím nenačteno  
Kosice (LZKZ) 29.11.2020 19:00 UTC Zobrazit METAR
LZKZ 291900Z VRB02KT 2100 -SN BR FEW005 BKN017 OVC026 M00/M00 Q1021
Krakow (EPKK) 29.11.2020 23:00 UTC Zobrazit METAR
EPKK 292300Z VRB02KT 5000 BR FEW012 BKN020 M00/M01 Q1023 R25/29//95
Kuala Lumpur (WMKK) 29.11.2020 19:00 UTC Zobrazit METAR
WMKK 291900Z 03003KT 350V060 9000 FEW010 27/24 Q1009 NOSIG
Kuopio (EFKU) 29.11.2020 22:50 UTC Zobrazit METAR
EFKU 292250Z AUTO 13005KT 9999 OVC006 M02/M03 Q1027
Kuressaare (EEKE) 29.11.2020 16:50 UTC Zobrazit METAR
EEKE 291650Z 03008KT 9999 OVC041 01/M00 Q1025
Kuwait (OKBK) 29.11.2020 23:00 UTC Zobrazit METAR
OKBK 292300Z 35013KT 4000 BR FEW020 SCT100 17/14 Q1019 NOSIG
Kyiv (UKBB) Zatím nenačteno  
Reklama


Reklama

Další české internetové stránky (nejen) o počasí najdete v katalogu TOPlist - weby o počasí nebo vyhledejte na internetu, co jste tu na 🌞 Slunečnu ⛅ zatím nenašli:
⭐ Přidat Slunečno.cz do oblíbených | 🏠 Nastavit Slunečno.cz jako HOMEPAGE

⬆️ Posunout stránku nahoru ⬆️
Reklama